createdAt,value
2023-07-24T00:00:51.112Z,20.3
2023-07-24T00:06:40.681Z,20.1
2023-07-24T00:11:50.974Z,20.2
2023-07-24T00:16:51.000Z,20.3
2023-07-24T00:22:40.697Z,20.5
2023-07-24T00:27:40.724Z,20.5
2023-07-24T00:32:40.773Z,20.6
2023-07-24T00:37:50.998Z,20.7
2023-07-24T00:43:40.708Z,20.8
2023-07-24T00:48:51.003Z,20.6
2023-07-24T00:53:51.021Z,20.2
2023-07-24T00:59:40.757Z,20.2
2023-07-24T01:04:51.037Z,20.1
2023-07-24T01:09:51.332Z,19.9
2023-07-24T01:15:40.724Z,19.8
2023-07-24T01:25:51.023Z,19.8
2023-07-24T01:31:40.553Z,19.9
2023-07-24T01:36:40.568Z,19.8
2023-07-24T01:41:51.012Z,19.9
2023-07-24T01:46:51.129Z,19.9
2023-07-24T01:52:40.768Z,19.8
2023-07-24T01:57:50.999Z,19.7
2023-07-24T02:02:51.073Z,19.8
2023-07-24T02:08:40.728Z,19.9
2023-07-24T02:13:50.966Z,19.9
2023-07-24T02:18:51.068Z,19.8
2023-07-24T02:23:51.140Z,19.9
2023-07-24T02:29:40.750Z,20.1
2023-07-24T02:34:51.022Z,20.2
2023-07-24T02:39:51.033Z,20.2
2023-07-24T02:45:40.737Z,20.1
2023-07-24T02:50:40.756Z,20.1
2023-07-24T02:55:50.836Z,20.2
2023-07-24T03:01:40.788Z,20.1
2023-07-24T03:06:40.790Z,20.2
2023-07-24T03:11:40.780Z,19.9
2023-07-24T03:16:50.801Z,19.9
2023-07-24T03:21:51.025Z,19.8
2023-07-24T03:26:51.150Z,19.7
2023-07-24T03:32:40.648Z,19.4
2023-07-24T03:37:50.827Z,19.2
2023-07-24T03:43:40.641Z,19.2
2023-07-24T03:48:51.127Z,19.1
2023-07-24T03:54:40.609Z,19
2023-07-24T03:59:50.816Z,18.7
2023-07-24T04:04:50.831Z,18.9
2023-07-24T04:09:50.854Z,19.1
2023-07-24T04:15:40.579Z,19.5
2023-07-24T04:20:40.592Z,19.5
2023-07-24T04:25:40.589Z,19.4
2023-07-24T04:30:50.904Z,19.5
2023-07-24T04:35:51.352Z,20
2023-07-24T04:41:40.679Z,20.3
2023-07-24T04:46:40.781Z,20.7
2023-07-24T04:51:50.912Z,20.7
2023-07-24T04:56:51.066Z,20.8
2023-07-24T05:01:51.191Z,20.9
2023-07-24T05:07:41.008Z,21
2023-07-24T05:12:51.044Z,21.1
2023-07-24T05:17:51.093Z,21.3
2023-07-24T05:23:40.855Z,21.3
2023-07-24T05:28:51.068Z,22.9
2023-07-24T05:33:51.075Z,25.2
2023-07-24T05:39:40.812Z,27.1
2023-07-24T05:44:50.969Z,26
2023-07-24T05:50:40.609Z,24.7
2023-07-24T05:55:40.637Z,24.1
2023-07-24T06:00:50.921Z,23.4
2023-07-24T06:05:51.084Z,23.7
2023-07-24T06:10:51.085Z,24.2
2023-07-24T06:15:51.143Z,24.2
2023-07-24T06:21:40.851Z,23.7
2023-07-24T06:26:51.073Z,23.5
2023-07-24T06:31:51.230Z,24.1
2023-07-24T06:37:40.856Z,24.2
2023-07-24T06:42:51.090Z,25.5
2023-07-24T06:48:40.975Z,26.6
2023-07-24T06:53:51.121Z,26.3
2023-07-24T06:59:40.880Z,25.7
2023-07-24T07:04:40.834Z,25.5
2023-07-24T07:09:40.846Z,24.3
2023-07-24T07:14:40.872Z,24
2023-07-24T07:25:40.870Z,25.4
2023-07-24T07:30:51.001Z,25.4
2023-07-24T07:35:51.087Z,25.9
2023-07-24T07:41:40.839Z,25.7
2023-07-24T07:46:40.851Z,26.3
2023-07-24T07:51:51.003Z,26.7
2023-07-24T07:56:51.145Z,26.3
2023-07-24T08:01:51.141Z,25.9
2023-07-24T08:07:40.852Z,25.2
2023-07-24T08:12:50.954Z,25.3
2023-07-24T08:17:51.204Z,25.9
2023-07-24T08:23:40.921Z,25.9
2023-07-24T08:28:51.628Z,26.2
2023-07-24T08:34:40.856Z,27.1
2023-07-24T08:39:40.869Z,26.8
2023-07-24T08:44:51.108Z,27
2023-07-24T08:49:51.138Z,26.7
2023-07-24T08:55:40.853Z,26.7
2023-07-24T09:00:40.883Z,27.1
2023-07-24T09:05:40.873Z,27.7
2023-07-24T09:10:40.935Z,28.4
2023-07-24T09:15:40.942Z,28.9
2023-07-24T09:20:51.799Z,28.2
2023-07-24T09:26:44.885Z,28.2
2023-07-24T09:31:51.156Z,28.6
2023-07-24T09:37:41.023Z,28.2
2023-07-24T09:43:17.944Z,27.9
2023-07-24T09:48:43.271Z,27.7
2023-07-24T09:53:51.289Z,28.6
2023-07-24T09:59:01.555Z,28.3
2023-07-24T10:04:40.657Z,27.8
2023-07-24T10:09:40.714Z,28.1
2023-07-24T10:19:51.097Z,28.9
2023-07-24T10:25:40.703Z,28.9
2023-07-24T10:30:51.197Z,28.3
2023-07-24T10:36:40.687Z,28.1
2023-07-24T10:41:40.722Z,28.7
2023-07-24T10:46:51.040Z,28.9
2023-07-24T10:52:40.726Z,28.7
2023-07-24T10:57:40.797Z,28
2023-07-24T11:02:40.962Z,28.4
2023-07-24T11:07:40.902Z,30
2023-07-24T11:12:40.904Z,30.4
2023-07-24T11:17:51.216Z,29.8
2023-07-24T11:23:40.924Z,29.8
2023-07-24T11:28:51.216Z,30.4
2023-07-24T11:34:40.795Z,30.6
2023-07-24T11:39:40.898Z,29.8
2023-07-24T11:44:40.927Z,28.5
2023-07-24T11:49:40.942Z,29
2023-07-24T11:54:40.996Z,29.5
2023-07-24T11:59:51.210Z,30.2
2023-07-24T12:05:41.031Z,29.4
2023-07-24T12:10:51.225Z,28.3
2023-07-24T12:15:51.246Z,27.4
2023-07-24T12:20:51.253Z,27.8
2023-07-24T12:26:40.930Z,27.3
2023-07-24T12:31:41.018Z,26.5
2023-07-24T12:36:40.988Z,24
2023-07-24T12:41:51.230Z,22.6
2023-07-24T12:47:40.749Z,22.5
2023-07-24T12:52:41.005Z,22.4
2023-07-24T12:57:51.271Z,21
2023-07-24T13:03:40.998Z,20.4
2023-07-24T13:08:40.964Z,20.4
2023-07-24T13:13:51.262Z,21.2
2023-07-24T13:18:51.254Z,21.1
2023-07-24T13:24:41.030Z,21.9
2023-07-24T13:34:51.283Z,22.1
2023-07-24T13:40:41.024Z,22.2
2023-07-24T13:45:51.246Z,21.6
2023-07-24T13:51:40.957Z,21.9
2023-07-24T13:56:40.967Z,22.7
2023-07-24T14:01:51.275Z,23.2
2023-07-24T14:07:40.958Z,23.1
2023-07-24T14:12:51.079Z,22.5
2023-07-24T14:17:51.326Z,23.1
2023-07-24T14:23:40.703Z,23
2023-07-24T14:28:40.797Z,22.7
2023-07-24T14:33:51.059Z,22.4
2023-07-24T14:38:51.212Z,22.3
2023-07-24T14:43:51.254Z,21.9
2023-07-24T14:49:40.982Z,21.2
2023-07-24T14:54:40.996Z,21.3
2023-07-24T15:00:01.611Z,22.8
2023-07-24T15:05:41.019Z,23.7
2023-07-24T15:10:51.277Z,24.4
2023-07-24T15:15:51.299Z,24.4
2023-07-24T15:21:41.015Z,25
2023-07-24T15:26:51.069Z,24.9
2023-07-24T15:31:51.305Z,25.1
2023-07-24T15:36:55.539Z,25.2
2023-07-24T15:42:00.323Z,24.9
2023-07-24T15:47:40.999Z,24.8
2023-07-24T15:52:41.131Z,24.9
2023-07-24T15:57:51.029Z,24.1
2023-07-24T16:03:40.877Z,23.7
2023-07-24T16:08:40.911Z,23.3
2023-07-24T16:13:51.039Z,23.5
2023-07-24T16:18:51.106Z,23.6
2023-07-24T16:24:40.906Z,23.9
2023-07-24T16:29:41.021Z,23.8
2023-07-24T16:34:51.155Z,24.2
2023-07-24T16:40:40.822Z,24.5
2023-07-24T16:45:40.824Z,24.5
2023-07-24T16:50:51.157Z,24
2023-07-24T16:56:40.903Z,23.5
2023-07-24T17:01:51.039Z,23.2
2023-07-24T17:06:51.123Z,25.9
2023-07-24T17:12:40.957Z,25.4
2023-07-24T17:17:41.032Z,24
2023-07-24T17:22:41.024Z,24.1
2023-07-24T17:27:41.041Z,23
2023-07-24T17:32:51.363Z,22.5
2023-07-24T17:38:41.028Z,22.2
2023-07-24T17:43:51.326Z,20.9
2023-07-24T17:49:45.390Z,20.1
2023-07-24T17:54:41.072Z,19.2
2023-07-24T17:59:51.583Z,18.5
2023-07-24T18:05:40.873Z,18.6
2023-07-24T18:10:51.542Z,18.1
2023-07-24T18:16:41.057Z,17.7
2023-07-24T18:21:51.321Z,18.2
2023-07-24T18:26:51.317Z,18.2
2023-07-24T18:31:51.425Z,18.2
2023-07-24T18:37:40.890Z,18.4
2023-07-24T18:42:40.896Z,18.5
2023-07-24T18:47:51.483Z,18.6
2023-07-24T18:53:40.868Z,18.9
2023-07-24T18:58:51.365Z,18.6
2023-07-24T19:04:41.036Z,18.7
2023-07-24T19:09:41.070Z,18.6
2023-07-24T19:14:51.359Z,18.4
2023-07-24T19:19:51.378Z,18.3
2023-07-24T19:25:41.079Z,18.3
2023-07-24T19:30:41.061Z,18.2
2023-07-24T19:35:41.045Z,18.1
2023-07-24T19:40:51.366Z,18.2
2023-07-24T19:46:41.040Z,18.1
2023-07-24T19:51:41.106Z,18.2
2023-07-24T19:56:51.337Z,18.4
2023-07-24T20:01:52.223Z,18.6
2023-07-24T20:07:41.030Z,18.4
2023-07-24T20:12:41.069Z,18.3
2023-07-24T20:17:51.223Z,18.2
2023-07-24T20:22:51.221Z,18.1
2023-07-24T20:27:51.374Z,18.2
2023-07-24T20:32:51.441Z,18.3
2023-07-24T20:38:41.079Z,18.3
2023-07-24T20:43:41.250Z,18.4
2023-07-24T20:48:51.349Z,18.1
2023-07-24T20:53:51.364Z,18.3
2023-07-24T20:59:41.086Z,18.4
2023-07-24T21:04:51.405Z,18.4
2023-07-24T21:09:51.392Z,18.6
2023-07-24T21:15:41.072Z,18.7
2023-07-24T21:25:41.427Z,18.6
2023-07-24T21:30:51.456Z,18.5
2023-07-24T21:36:41.119Z,18.7
2023-07-24T21:41:51.338Z,18.7
2023-07-24T21:47:41.214Z,18.7
2023-07-24T21:52:51.373Z,18.8
2023-07-24T21:58:41.131Z,18.6
2023-07-24T22:03:41.183Z,18.4
2023-07-24T22:08:41.204Z,18.4
2023-07-24T22:13:51.371Z,18.5
2023-07-24T22:18:51.464Z,18.5
2023-07-24T22:24:40.893Z,18.4
2023-07-24T22:29:51.193Z,18.6
2023-07-24T22:34:51.225Z,18.6
2023-07-24T22:40:40.901Z,18.5
2023-07-24T22:45:51.212Z,18.5
2023-07-24T22:55:51.228Z,18.7
2023-07-24T23:00:51.298Z,18.5
2023-07-24T23:06:40.887Z,18.6
2023-07-24T23:11:41.053Z,18.7
2023-07-24T23:16:51.209Z,18.4
2023-07-24T23:22:41.031Z,18.3
2023-07-24T23:27:41.121Z,18.2
2023-07-24T23:32:51.362Z,18.4
2023-07-24T23:37:51.407Z,18.4
2023-07-24T23:43:40.956Z,18.3
2023-07-24T23:48:41.118Z,18.4
2023-07-24T23:53:51.216Z,18.5
2023-07-24T23:59:01.549Z,18.7
